CCGS Sir Wilfrid Laurier — CGJK — position and weather

sailwx.info

Track history (hours):
 
Tides and Currents Weather Stations Pressure Air Temp Water Temp Dewpoint Dewpoint Depression Visibility Wind Speed Wind Dir Waves Ship Positions

Oceanographic research ship CCGS Sir Wilfrid Laurier (Canada)

Detailed information on ship capabilities available from ARCUS's ALIAS (Arctic Logistics Information and Support) project.

Last reported at 2015-May-02 00:28 UTC. Time now 2015-May-06 12:26 UTC.
Position N 48°48' W 126°37'.

Length 83 m; beam 16.2 m; draft 6 m.

Type: SAR. MMSI: 316052000.

Date/timePositionNaut miles runAvg speedWind from/ knotsBaromVisibWave heightAir tempDewpointWater temp
2015-May-02 00:28N 48°48' W 126°37'1112.2
2015-May-01 23:33N 48°49' W 126°20'7 7.1
2015-May-01 22:34N 48°49' W 126°09'6 6.2
2015-May-01 21:33N 48°49' W 125°60'1 0.7
2015-May-01 20:34N 48°50' W 125°60'0 0.1
2015-May-01 19:33N 48°50' W 125°60'0 0.0
2015-May-01 18:33N 48°50' W 125°60'0 0.0
2015-May-01 17:34N 48°50' W 125°60'8 8.0
2015-May-01 16:33N 48°52' W 125°48'1110.7
2015-May-01 15:33N 48°55' W 125°32'1010.1
2015-May-01 14:34N 48°51' W 125°47'4 3.8
2015-May-01 13:33N 48°48' W 125°49'8 8.5
2015-May-01 12:33N 48°44' W 125°38'9 9.4
2015-May-01 11:33N 48°41' W 125°24'9 9.2
2015-May-01 10:33N 48°38' W 125°11'9 9.5
2015-May-01 09:33N 48°34' W 124°58'9 9.5
2015-May-01 08:33N 48°31' W 124°44'9 9.1
2015-May-01 07:33N 48°27' W 124°32'9 9.4
2015-May-01 06:34N 48°24' W 124°19'10 9.5
2015-May-01 05:34N 48°19' W 124°06'9 9.3
2015-May-01 04:33N 48°17' W 123°53'8 8.1
2015-May-01 03:33N 48°16' W 123°40'7 7.5
2015-May-01 02:33N 48°16' W 123°29'10 9.6
2015-May-01 01:33N 48°25' W 123°23'0 0.1
2015-May-01 00:03N 48°25' W 123°23'0 0.0
2015-Apr-30 23:33N 48°25' W 123°23'0 0.0
2015-Apr-30 22:33N 48°25' W 123°23'0 0.0
2015-Apr-30 21:27N 48°25' W 123°23'0 0.0
2015-Apr-30 20:27N 48°25' W 123°23'0 0.0
2015-Apr-30 19:27N 48°25' W 123°23'0 0.0
2015-Apr-30 18:15N 48°25' W 123°23'0 0.0
2015-Apr-30 16:15N 48°25' W 123°23'0 0.0
2015-Apr-30 00:03N 48°25' W 123°23'0 0.0
2015-Apr-29 22:21N 48°25' W 123°23'0 0.0
2015-Apr-29 20:04N 48°25' W 123°23'2 2.9
2015-Apr-29 19:33N 48°24' W 123°23'7 7.3
2015-Apr-29 18:33N 48°26' W 123°12'1110.9
2015-Apr-29 17:33N 48°36' W 123°14'9 9.3
2015-Apr-29 16:33N 48°45' W 123°21'7 6.9
2015-Apr-29 15:33N 48°39' W 123°28'0 0.2
2015-Apr-29 13:17N 48°39' W 123°27'0 0.0
2015-Apr-29 12:17N 48°39' W 123°27'0 0.0
2015-Apr-29 10:30N 48°39' W 123°27'0 0.0
2015-Apr-29 09:23N 48°39' W 123°27'0 0.0
2015-Apr-29 08:23N 48°39' W 123°27'0 0.0
2015-Apr-29 07:23N 48°39' W 123°27'0 0.0
2015-Apr-29 06:29N 48°39' W 123°27'0 0.0
2015-Apr-29 05:29N 48°39' W 123°27'0 0.0
2015-Apr-29 04:29N 48°39' W 123°27'0 0.0
2015-Apr-29 01:23N 48°39' W 123°27'0 0.0
2015-Apr-28 21:17N 48°39' W 123°27'0 0.0
2015-Apr-28 20:23N 48°39' W 123°27'0 0.0
2015-Apr-28 19:29N 48°39' W 123°27'0 0.0
2015-Apr-28 18:17N 48°39' W 123°27'0 0.0
2015-Apr-28 16:23N 48°39' W 123°27'0 0.0
2015-Apr-28 15:05N 48°39' W 123°27'0 0.0
2015-Apr-28 04:29N 48°39' W 123°27'0 0.0
2015-Apr-27 23:17N 48°39' W 123°27'0 0.0
2015-Apr-27 17:30N 48°39' W 123°27'0 0.0
2015-Apr-27 15:24N 48°39' W 123°27'0 0.0
2015-Apr-27 13:30N 48°39' W 123°27'0 0.0
2015-Apr-27 07:12N 48°39' W 123°27'0 0.0
2015-Apr-27 01:12N 48°39' W 123°27'0 0.0
2015-Apr-27 00:24N 48°39' W 123°27'0 0.0
2015-Apr-26 22:24N 48°39' W 123°27'0 0.0
2015-Apr-26 19:24N 48°39' W 123°27'0 0.0
2015-Apr-26 18:06N 48°39' W 123°27'0 0.0
2015-Apr-26 16:18N 48°39' W 123°27'0 0.0
2015-Apr-26 14:24N 48°39' W 123°27'0 0.0
2015-Apr-26 13:06N 48°39' W 123°27'0 0.0
2015-Apr-26 10:30N 48°39' W 123°27'0 0.0
2015-Apr-26 09:30N 48°39' W 123°27'0 0.0
2015-Apr-26 07:18N 48°39' W 123°27'0 0.0
2015-Apr-26 05:30N 48°39' W 123°27'0 0.0
2015-Apr-26 04:30N 48°39' W 123°27'0 0.0
2015-Apr-26 02:12N 48°39' W 123°27'0 0.0
2015-Apr-25 20:24N 48°39' W 123°27'0 0.0
2015-Apr-25 19:12N 48°39' W 123°27'0 0.0
2015-Apr-25 18:30N 48°39' W 123°27'0 0.0
2015-Apr-25 17:30N 48°39' W 123°27'0 0.0
2015-Apr-25 16:12N 48°39' W 123°27'0 0.0
2015-Apr-25 15:12N 48°39' W 123°27'0 0.0
2015-Apr-25 14:30N 48°39' W 123°27'0 0.0
2015-Apr-25 13:30N 48°39' W 123°27'0 0.0
2015-Apr-25 09:30N 48°39' W 123°27'0 0.0
2015-Apr-25 07:18N 48°39' W 123°27'0 0.0
2015-Apr-25 06:12N 48°39' W 123°27'0 0.0
2015-Apr-25 05:30N 48°39' W 123°27'0 0.0
2015-Apr-25 04:30N 48°39' W 123°27'0 0.0
2015-Apr-24 23:24N 48°39' W 123°27'0 0.0
2015-Apr-24 22:24N 48°39' W 123°27'0 0.0
2015-Apr-24 21:18N 48°39' W 123°27'0 0.0
2015-Apr-24 18:33N 48°39' W 123°27'0 0.0
2015-Apr-24 17:33N 48°39' W 123°27'0 0.0
2015-Apr-24 16:33N 48°39' W 123°27'0 0.0
2015-Apr-24 15:33N 48°39' W 123°27'0 0.0
2015-Apr-24 14:33N 48°39' W 123°27'0 0.0
2015-Apr-24 13:33N 48°39' W 123°27'0 0.0
2015-Apr-24 11:30N 48°39' W 123°27'0 0.0
2015-Apr-24 10:30N 48°39' W 123°27'0 0.0
2015-Apr-24 05:06N 48°39' W 123°27'0 0.0
2015-Apr-24 04:30N 48°39' W 123°27'0 0.0
2015-Apr-24 03:30N 48°39' W 123°27'0 0.0
2015-Apr-24 01:30N 48°39' W 123°27'0 0.0
2015-Apr-24 00:18N 48°39' W 123°27'0 0.0
2015-Apr-23 22:30N 48°39' W 123°27'0 0.0
2015-Apr-23 20:33N 48°39' W 123°27'0 0.0
2015-Apr-23 15:03N 48°39' W 123°27'0 0.0
2015-Apr-23 14:33N 48°39' W 123°27'0 0.0
2015-Apr-23 13:24N 48°39' W 123°27'0 0.0
2015-Apr-23 12:33N 48°39' W 123°27'0 0.0
2015-Apr-23 10:24N 48°39' W 123°27'0 0.0
2015-Apr-23 09:12N 48°39' W 123°27'0 0.0
2015-Apr-23 08:30N 48°39' W 123°27'0 0.0
2015-Apr-23 07:24N 48°39' W 123°27'0 0.0
2015-Apr-23 06:30N 48°39' W 123°27'0 0.0
2015-Apr-23 03:30N 48°39' W 123°27'0 0.0
2015-Apr-23 02:24N 48°39' W 123°27'0 0.0
2015-Apr-22 16:24N 48°39' W 123°27'0 0.0
2015-Apr-22 15:18N 48°39' W 123°27'0 0.0
2015-Apr-22 14:24N 48°39' W 123°27'0 0.0
2015-Apr-22 13:24N 48°39' W 123°27'0 0.0
2015-Apr-22 12:24N 48°39' W 123°27'0 0.0
2015-Apr-22 11:24N 48°39' W 123°27'0 0.0
2015-Apr-22 10:12N 48°39' W 123°27'0 0.0
2015-Apr-22 06:18N 48°39' W 123°27'0 0.0
2015-Apr-22 05:18N 48°39' W 123°27'0 0.0
2015-Apr-22 04:06N 48°39' W 123°27'0 0.0
2015-Apr-22 03:24N 48°39' W 123°27'0 0.0
2015-Apr-22 01:12N 48°39' W 123°27'  
Track history (hours):
 
Tides and Currents Weather Stations Pressure Air Temp Water Temp Dewpoint Dewpoint Depression Visibility Wind Speed Wind Dir Waves Ship Positions

Oceanographic research ship CCGS Sir Wilfrid Laurier (Canada)

Detailed information on ship capabilities available from ARCUS's ALIAS (Arctic Logistics Information and Support) project.

Last reported at 2015-May-02 00:28 UTC. Time now 2015-May-06 12:26 UTC.
Position N 48°48' W 126°37'.

Length 83 m; beam 16.2 m; draft 6 m.

Type: SAR. MMSI: 316052000.

Date/timePositionNaut miles runAvg speedWind from/ knotsBaromVisibWave heightAir tempDewpointWater temp
2015-May-02 00:28N 48°48' W 126°37'1112.2
2015-May-01 23:33N 48°49' W 126°20'7 7.1
2015-May-01 22:34N 48°49' W 126°09'6 6.2
2015-May-01 21:33N 48°49' W 125°60'1 0.7
2015-May-01 20:34N 48°50' W 125°60'0 0.1
2015-May-01 19:33N 48°50' W 125°60'0 0.0
2015-May-01 18:33N 48°50' W 125°60'0 0.0
2015-May-01 17:34N 48°50' W 125°60'8 8.0
2015-May-01 16:33N 48°52' W 125°48'1110.7
2015-May-01 15:33N 48°55' W 125°32'1010.1
2015-May-01 14:34N 48°51' W 125°47'4 3.8
2015-May-01 13:33N 48°48' W 125°49'8 8.5
2015-May-01 12:33N 48°44' W 125°38'9 9.4
2015-May-01 11:33N 48°41' W 125°24'9 9.2
2015-May-01 10:33N 48°38' W 125°11'9 9.5
2015-May-01 09:33N 48°34' W 124°58'9 9.5
2015-May-01 08:33N 48°31' W 124°44'9 9.1
2015-May-01 07:33N 48°27' W 124°32'9 9.4
2015-May-01 06:34N 48°24' W 124°19'10 9.5
2015-May-01 05:34N 48°19' W 124°06'9 9.3
2015-May-01 04:33N 48°17' W 123°53'8 8.1
2015-May-01 03:33N 48°16' W 123°40'7 7.5
2015-May-01 02:33N 48°16' W 123°29'10 9.6
2015-May-01 01:33N 48°25' W 123°23'0 0.1
2015-May-01 00:03N 48°25' W 123°23'0 0.0
2015-Apr-30 23:33N 48°25' W 123°23'0 0.0
2015-Apr-30 22:33N 48°25' W 123°23'0 0.0
2015-Apr-30 21:27N 48°25' W 123°23'0 0.0
2015-Apr-30 20:27N 48°25' W 123°23'0 0.0
2015-Apr-30 19:27N 48°25' W 123°23'0 0.0
2015-Apr-30 18:15N 48°25' W 123°23'0 0.0
2015-Apr-30 16:15N 48°25' W 123°23'0 0.0
2015-Apr-30 00:03N 48°25' W 123°23'0 0.0
2015-Apr-29 22:21N 48°25' W 123°23'0 0.0
2015-Apr-29 20:04N 48°25' W 123°23'2 2.9
2015-Apr-29 19:33N 48°24' W 123°23'7 7.3
2015-Apr-29 18:33N 48°26' W 123°12'1110.9
2015-Apr-29 17:33N 48°36' W 123°14'9 9.3
2015-Apr-29 16:33N 48°45' W 123°21'7 6.9
2015-Apr-29 15:33N 48°39' W 123°28'0 0.2
2015-Apr-29 13:17N 48°39' W 123°27'0 0.0
2015-Apr-29 12:17N 48°39' W 123°27'0 0.0
2015-Apr-29 10:30N 48°39' W 123°27'0 0.0
2015-Apr-29 09:23N 48°39' W 123°27'0 0.0
2015-Apr-29 08:23N 48°39' W 123°27'0 0.0
2015-Apr-29 07:23N 48°39' W 123°27'0 0.0
2015-Apr-29 06:29N 48°39' W 123°27'0 0.0
2015-Apr-29 05:29N 48°39' W 123°27'0 0.0
2015-Apr-29 04:29N 48°39' W 123°27'0 0.0
2015-Apr-29 01:23N 48°39' W 123°27'0 0.0
2015-Apr-28 21:17N 48°39' W 123°27'0 0.0
2015-Apr-28 20:23N 48°39' W 123°27'0 0.0
2015-Apr-28 19:29N 48°39' W 123°27'0 0.0
2015-Apr-28 18:17N 48°39' W 123°27'0 0.0
2015-Apr-28 16:23N 48°39' W 123°27'0 0.0
2015-Apr-28 15:05N 48°39' W 123°27'0 0.0
2015-Apr-28 04:29N 48°39' W 123°27'0 0.0
2015-Apr-27 23:17N 48°39' W 123°27'0 0.0
2015-Apr-27 17:30N 48°39' W 123°27'0 0.0
2015-Apr-27 15:24N 48°39' W 123°27'0 0.0
2015-Apr-27 13:30N 48°39' W 123°27'0 0.0
2015-Apr-27 07:12N 48°39' W 123°27'0 0.0
2015-Apr-27 01:12N 48°39' W 123°27'0 0.0
2015-Apr-27 00:24N 48°39' W 123°27'0 0.0
2015-Apr-26 22:24N 48°39' W 123°27'0 0.0
2015-Apr-26 19:24N 48°39' W 123°27'0 0.0
2015-Apr-26 18:06N 48°39' W 123°27'0 0.0
2015-Apr-26 16:18N 48°39' W 123°27'0 0.0
2015-Apr-26 14:24N 48°39' W 123°27'0 0.0
2015-Apr-26 13:06N 48°39' W 123°27'0 0.0
2015-Apr-26 10:30N 48°39' W 123°27'0 0.0
2015-Apr-26 09:30N 48°39' W 123°27'0 0.0
2015-Apr-26 07:18N 48°39' W 123°27'0 0.0
2015-Apr-26 05:30N 48°39' W 123°27'0 0.0
2015-Apr-26 04:30N 48°39' W 123°27'0 0.0
2015-Apr-26 02:12N 48°39' W 123°27'0 0.0
2015-Apr-25 20:24N 48°39' W 123°27'0 0.0
2015-Apr-25 19:12N 48°39' W 123°27'0 0.0
2015-Apr-25 18:30N 48°39' W 123°27'0 0.0
2015-Apr-25 17:30N 48°39' W 123°27'0 0.0
2015-Apr-25 16:12N 48°39' W 123°27'0 0.0
2015-Apr-25 15:12N 48°39' W 123°27'0 0.0
2015-Apr-25 14:30N 48°39' W 123°27'0 0.0
2015-Apr-25 13:30N 48°39' W 123°27'0 0.0
2015-Apr-25 09:30N 48°39' W 123°27'0 0.0
2015-Apr-25 07:18N 48°39' W 123°27'0 0.0
2015-Apr-25 06:12N 48°39' W 123°27'0 0.0
2015-Apr-25 05:30N 48°39' W 123°27'0 0.0
2015-Apr-25 04:30N 48°39' W 123°27'0 0.0
2015-Apr-24 23:24N 48°39' W 123°27'0 0.0
2015-Apr-24 22:24N 48°39' W 123°27'0 0.0
2015-Apr-24 21:18N 48°39' W 123°27'0 0.0
2015-Apr-24 18:33N 48°39' W 123°27'0 0.0
2015-Apr-24 17:33N 48°39' W 123°27'0 0.0
2015-Apr-24 16:33N 48°39' W 123°27'0 0.0
2015-Apr-24 15:33N 48°39' W 123°27'0 0.0
2015-Apr-24 14:33N 48°39' W 123°27'0 0.0
2015-Apr-24 13:33N 48°39' W 123°27'0 0.0
2015-Apr-24 11:30N 48°39' W 123°27'0 0.0
2015-Apr-24 10:30N 48°39' W 123°27'0 0.0
2015-Apr-24 05:06N 48°39' W 123°27'0 0.0
2015-Apr-24 04:30N 48°39' W 123°27'0 0.0
2015-Apr-24 03:30N 48°39' W 123°27'0 0.0
2015-Apr-24 01:30N 48°39' W 123°27'0 0.0
2015-Apr-24 00:18N 48°39' W 123°27'0 0.0
2015-Apr-23 22:30N 48°39' W 123°27'0 0.0
2015-Apr-23 20:33N 48°39' W 123°27'0 0.0
2015-Apr-23 15:03N 48°39' W 123°27'0 0.0
2015-Apr-23 14:33N 48°39' W 123°27'0 0.0
2015-Apr-23 13:24N 48°39' W 123°27'0 0.0
2015-Apr-23 12:33N 48°39' W 123°27'0 0.0
2015-Apr-23 10:24N 48°39' W 123°27'0 0.0
2015-Apr-23 09:12N 48°39' W 123°27'0 0.0
2015-Apr-23 08:30N 48°39' W 123°27'0 0.0
2015-Apr-23 07:24N 48°39' W 123°27'0 0.0
2015-Apr-23 06:30N 48°39' W 123°27'0 0.0
2015-Apr-23 03:30N 48°39' W 123°27'0 0.0
2015-Apr-23 02:24N 48°39' W 123°27'0 0.0
2015-Apr-22 16:24N 48°39' W 123°27'0 0.0
2015-Apr-22 15:18N 48°39' W 123°27'0 0.0
2015-Apr-22 14:24N 48°39' W 123°27'0 0.0
2015-Apr-22 13:24N 48°39' W 123°27'0 0.0
2015-Apr-22 12:24N 48°39' W 123°27'0 0.0
2015-Apr-22 11:24N 48°39' W 123°27'0 0.0
2015-Apr-22 10:12N 48°39' W 123°27'0 0.0
2015-Apr-22 06:18N 48°39' W 123°27'0 0.0
2015-Apr-22 05:18N 48°39' W 123°27'0 0.0
2015-Apr-22 04:06N 48°39' W 123°27'0 0.0
2015-Apr-22 03:24N 48°39' W 123°27'0 0.0
2015-Apr-22 01:12N 48°39' W 123°27'  

Dump ship's entire track history